sensor_id;sensor_type;location;lat;lon;timestamp;pressure;altitude;pressure_sealevel;temperature;humidity
829;BME280;396;52.558;13.188;2023-01-31T00:00:50;100816.81;;;4.30;85.22
829;BME280;396;52.558;13.188;2023-01-31T00:03:16;100837.16;;;4.26;85.90
829;BME280;396;52.558;13.188;2023-01-31T00:05:43;100839.72;;;4.16;86.34
829;BME280;396;52.558;13.188;2023-01-31T00:08:09;100834.88;;;4.13;87.01
829;BME280;396;52.558;13.188;2023-01-31T00:10:38;100833.31;;;4.17;86.77
829;BME280;396;52.558;13.188;2023-01-31T00:13:04;100834.66;;;4.20;86.52
829;BME280;396;52.558;13.188;2023-01-31T00:15:31;100845.09;;;4.16;86.67
829;BME280;396;52.558;13.188;2023-01-31T00:17:58;100855.19;;;4.09;87.50
829;BME280;396;52.558;13.188;2023-01-31T00:20:24;100861.03;;;4.06;86.75
829;BME280;396;52.558;13.188;2023-01-31T00:22:51;100842.09;;;4.13;86.42
829;BME280;396;52.558;13.188;2023-01-31T00:25:17;100852.56;;;4.14;85.99
829;BME280;396;52.558;13.188;2023-01-31T00:27:45;100851.13;;;4.07;86.36
829;BME280;396;52.558;13.188;2023-01-31T00:30:12;100856.25;;;4.08;86.97
829;BME280;396;52.558;13.188;2023-01-31T00:32:39;100852.78;;;4.08;86.39
829;BME280;396;52.558;13.188;2023-01-31T00:35:06;100855.19;;;4.09;86.29
829;BME280;396;52.558;13.188;2023-01-31T00:37:33;100864.94;;;4.20;85.74
829;BME280;396;52.558;13.188;2023-01-31T00:39:59;100867.63;;;4.20;85.88
829;BME280;396;52.558;13.188;2023-01-31T00:42:26;100877.75;;;4.13;85.89
829;BME280;396;52.558;13.188;2023-01-31T00:44:54;100891.69;;;4.15;86.20
829;BME280;396;52.558;13.188;2023-01-31T00:47:20;100873.50;;;4.17;85.81
829;BME280;396;52.558;13.188;2023-01-31T00:49:47;100887.41;;;4.14;86.78
829;BME280;396;52.558;13.188;2023-01-31T00:52:13;100901.38;;;4.16;86.91
829;BME280;396;52.558;13.188;2023-01-31T00:54:40;100906.81;;;4.21;86.16
829;BME280;396;52.558;13.188;2023-01-31T00:57:07;100902.56;;;4.25;85.82
829;BME280;396;52.558;13.188;2023-01-31T00:59:33;100902.03;;;4.28;85.78
829;BME280;396;52.558;13.188;2023-01-31T01:02:01;100912.78;;;4.28;85.47
829;BME280;396;52.558;13.188;2023-01-31T01:04:28;100910.13;;;4.34;85.51
829;BME280;396;52.558;13.188;2023-01-31T01:06:54;100914.19;;;4.36;85.22
829;BME280;396;52.558;13.188;2023-01-31T01:09:21;100924.13;;;4.36;85.81
829;BME280;396;52.558;13.188;2023-01-31T01:11:48;100926.84;;;4.41;84.85
829;BME280;396;52.558;13.188;2023-01-31T01:14:14;100938.38;;;4.41;85.01
829;BME280;396;52.558;13.188;2023-01-31T01:16:42;100937.13;;;4.49;84.28
829;BME280;396;52.558;13.188;2023-01-31T01:19:12;100939.59;;;4.55;84.01
829;BME280;396;52.558;13.188;2023-01-31T01:21:40;100951.66;;;4.53;83.71
829;BME280;396;52.558;13.188;2023-01-31T01:24:12;100958.66;;;4.54;84.59
829;BME280;396;52.558;13.188;2023-01-31T01:26:39;100947.44;;;4.57;83.72
829;BME280;396;52.558;13.188;2023-01-31T01:29:06;100945.88;;;4.61;83.61
829;BME280;396;52.558;13.188;2023-01-31T01:31:32;100944.28;;;4.65;83.60
829;BME280;396;52.558;13.188;2023-01-31T01:34:01;100949.91;;;4.64;83.28
829;BME280;396;52.558;13.188;2023-01-31T01:36:31;100955.16;;;4.53;83.75
829;BME280;396;52.558;13.188;2023-01-31T01:38:58;100949.84;;;4.59;83.87
829;BME280;396;52.558;13.188;2023-01-31T01:41:25;100953.91;;;4.61;83.94
829;BME280;396;52.558;13.188;2023-01-31T01:43:53;100966.75;;;4.59;84.07
829;BME280;396;52.558;13.188;2023-01-31T01:46:23;100956.59;;;4.61;83.74
829;BME280;396;52.558;13.188;2023-01-31T01:48:55;100961.16;;;4.61;83.60
829;BME280;396;52.558;13.188;2023-01-31T01:51:23;100968.38;;;4.60;84.22
829;BME280;396;52.558;13.188;2023-01-31T01:53:56;100971.03;;;4.60;84.01
829;BME280;396;52.558;13.188;2023-01-31T01:56:27;100981.22;;;4.58;84.82
829;BME280;396;52.558;13.188;2023-01-31T01:59:02;100979.00;;;4.50;84.95
829;BME280;396;52.558;13.188;2023-01-31T02:01:34;100988.09;;;4.49;85.94
829;BME280;396;52.558;13.188;2023-01-31T02:04:02;100989.22;;;4.53;85.38
829;BME280;396;52.558;13.188;2023-01-31T02:06:31;100999.94;;;4.53;85.30
829;BME280;396;52.558;13.188;2023-01-31T02:08:59;100994.09;;;4.56;84.91
829;BME280;396;52.558;13.188;2023-01-31T02:11:28;100994.09;;;4.56;84.79
829;BME280;396;52.558;13.188;2023-01-31T02:13:59;100990.91;;;4.59;84.29
829;BME280;396;52.558;13.188;2023-01-31T02:16:27;101006.63;;;4.50;84.74
829;BME280;396;52.558;13.188;2023-01-31T02:18:54;101010.56;;;4.43;85.18
829;BME280;396;52.558;13.188;2023-01-31T02:21:46;101013.47;;;4.41;84.88
829;BME280;396;52.558;13.188;2023-01-31T02:24:52;101020.16;;;4.39;84.63
829;BME280;396;52.558;13.188;2023-01-31T02:27:56;101023.50;;;4.29;85.48
829;BME280;396;52.558;13.188;2023-01-31T02:33:28;101024.59;;;4.11;87.35
829;BME280;396;52.558;13.188;2023-01-31T02:36:04;101035.59;;;4.10;86.71
829;BME280;396;52.558;13.188;2023-01-31T02:38:44;101029.75;;;3.96;88.73
829;BME280;396;52.558;13.188;2023-01-31T02:41:20;101024.66;;;3.94;87.37
829;BME280;396;52.558;13.188;2023-01-31T02:43:53;101021.66;;;3.91;88.47
829;BME280;396;52.558;13.188;2023-01-31T02:46:47;101023.28;;;3.92;87.92
829;BME280;396;52.558;13.188;2023-01-31T02:49:21;101024.41;;;3.79;88.97
829;BME280;396;52.558;13.188;2023-01-31T02:52:04;101014.34;;;3.86;88.29
829;BME280;396;52.558;13.188;2023-01-31T02:54:55;101027.75;;;3.86;88.54
829;BME280;396;52.558;13.188;2023-01-31T02:57:43;101030.66;;;3.85;88.80
829;BME280;396;52.558;13.188;2023-01-31T03:00:11;101026.75;;;3.75;89.34
829;BME280;396;52.558;13.188;2023-01-31T03:02:39;101031.09;;;3.76;89.33
829;BME280;396;52.558;13.188;2023-01-31T03:05:11;101034.59;;;3.77;89.54
829;BME280;396;52.558;13.188;2023-01-31T03:07:40;101031.56;;;3.73;90.02
829;BME280;396;52.558;13.188;2023-01-31T03:10:15;101034.00;;;3.75;89.93
829;BME280;396;52.558;13.188;2023-01-31T03:12:53;101032.78;;;3.66;90.51
829;BME280;396;52.558;13.188;2023-01-31T03:15:41;101035.13;;;3.62;90.62
829;BME280;396;52.558;13.188;2023-01-31T03:18:33;101021.53;;;3.64;90.80
829;BME280;396;52.558;13.188;2023-01-31T03:21:08;101025.81;;;3.65;90.71
829;BME280;396;52.558;13.188;2023-01-31T03:23:37;101022.72;;;3.56;91.07
829;BME280;396;52.558;13.188;2023-01-31T03:26:06;101019.47;;;3.54;91.55
829;BME280;396;52.558;13.188;2023-01-31T03:28:35;101027.50;;;3.54;91.46
829;BME280;396;52.558;13.188;2023-01-31T03:31:06;101029.88;;;3.50;91.70
829;BME280;396;52.558;13.188;2023-01-31T03:33:37;101036.44;;;3.43;92.06
829;BME280;396;52.558;13.188;2023-01-31T03:36:13;101039.66;;;3.45;92.26
829;BME280;396;52.558;13.188;2023-01-31T03:38:48;101040.25;;;3.47;92.63
829;BME280;396;52.558;13.188;2023-01-31T03:41:24;101048.22;;;3.42;92.90
829;BME280;396;52.558;13.188;2023-01-31T03:43:58;101041.06;;;3.47;92.71
829;BME280;396;52.558;13.188;2023-01-31T03:46:30;101056.31;;;3.47;92.67
829;BME280;396;52.558;13.188;2023-01-31T03:49:01;101054.69;;;3.46;93.02
829;BME280;396;52.558;13.188;2023-01-31T03:51:36;101062.22;;;3.49;92.56
829;BME280;396;52.558;13.188;2023-01-31T03:54:05;101052.41;;;3.38;93.44
829;BME280;396;52.558;13.188;2023-01-31T03:56:36;101066.13;;;3.41;93.17
829;BME280;396;52.558;13.188;2023-01-31T03:59:08;101067.97;;;3.41;93.21
829;BME280;396;52.558;13.188;2023-01-31T04:01:40;101068.41;;;3.33;93.90
829;BME280;396;52.558;13.188;2023-01-31T04:04:10;101060.38;;;3.33;94.17
829;BME280;396;52.558;13.188;2023-01-31T04:06:41;101075.91;;;3.36;94.28
829;BME280;396;52.558;13.188;2023-01-31T04:09:07;101074.38;;;3.40;94.30
829;BME280;396;52.558;13.188;2023-01-31T04:11:36;101073.75;;;3.33;94.18
829;BME280;396;52.558;13.188;2023-01-31T04:14:04;101076.91;;;3.29;95.03
829;BME280;396;52.558;13.188;2023-01-31T04:16:31;101075.72;;;3.37;94.99
829;BME280;396;52.558;13.188;2023-01-31T04:18:58;101075.78;;;3.42;95.14
829;BME280;396;52.558;13.188;2023-01-31T04:21:25;101073.34;;;3.41;95.15
829;BME280;396;52.558;13.188;2023-01-31T04:23:53;101061.59;;;3.42;95.16
829;BME280;396;52.558;13.188;2023-01-31T04:26:19;101071.00;;;3.44;95.07
829;BME280;396;52.558;13.188;2023-01-31T04:28:46;101065.88;;;3.43;95.17
829;BME280;396;52.558;13.188;2023-01-31T04:31:12;101066.22;;;3.46;95.37
829;BME280;396;52.558;13.188;2023-01-31T04:33:39;101070.00;;;3.34;96.37
829;BME280;396;52.558;13.188;2023-01-31T04:36:06;101080.72;;;3.34;96.13
829;BME280;396;52.558;13.188;2023-01-31T04:38:33;101073.84;;;3.38;96.03
829;BME280;396;52.558;13.188;2023-01-31T04:41:01;101093.06;;;3.35;96.38
829;BME280;396;52.558;13.188;2023-01-31T04:43:28;101100.53;;;3.33;96.69
829;BME280;396;52.558;13.188;2023-01-31T04:45:54;101093.94;;;3.40;96.24
829;BME280;396;52.558;13.188;2023-01-31T04:48:21;101100.44;;;3.44;96.25
829;BME280;396;52.558;13.188;2023-01-31T04:50:48;101107.03;;;3.53;95.96
829;BME280;396;52.558;13.188;2023-01-31T04:53:14;101114.59;;;3.57;95.83
829;BME280;396;52.558;13.188;2023-01-31T04:55:41;101110.03;;;3.57;95.55
829;BME280;396;52.558;13.188;2023-01-31T04:58:09;101112.16;;;3.55;96.05
829;BME280;396;52.558;13.188;2023-01-31T05:00:35;101106.41;;;3.63;96.09
829;BME280;396;52.558;13.188;2023-01-31T05:03:02;101117.34;;;3.62;96.41
829;BME280;396;52.558;13.188;2023-01-31T05:05:29;101113.56;;;3.74;96.05
829;BME280;396;52.558;13.188;2023-01-31T05:07:56;101103.56;;;3.70;96.10
829;BME280;396;52.558;13.188;2023-01-31T05:10:22;101099.34;;;3.74;96.26
829;BME280;396;52.558;13.188;2023-01-31T05:12:49;101103.91;;;3.73;96.44
829;BME280;396;52.558;13.188;2023-01-31T05:15:17;101103.44;;;3.76;96.23
829;BME280;396;52.558;13.188;2023-01-31T05:17:50;101106.19;;;3.82;96.08
829;BME280;396;52.558;13.188;2023-01-31T05:20:17;101103.00;;;3.85;95.67
829;BME280;396;52.558;13.188;2023-01-31T05:22:46;101106.00;;;3.88;95.61
829;BME280;396;52.558;13.188;2023-01-31T05:25:12;101119.81;;;3.97;95.17
829;BME280;396;52.558;13.188;2023-01-31T05:27:39;101115.13;;;4.04;95.00
829;BME280;396;52.558;13.188;2023-01-31T05:30:07;101111.63;;;4.03;94.42
829;BME280;396;52.558;13.188;2023-01-31T05:32:36;101115.94;;;4.04;94.39
829;BME280;396;52.558;13.188;2023-01-31T05:35:04;101108.44;;;4.07;94.55
829;BME280;396;52.558;13.188;2023-01-31T05:37:31;101112.59;;;4.14;94.36
829;BME280;396;52.558;13.188;2023-01-31T05:39:57;101115.34;;;4.19;93.71
829;BME280;396;52.558;13.188;2023-01-31T05:42:24;101117.88;;;4.26;93.43
829;BME280;396;52.558;13.188;2023-01-31T05:44:51;101120.88;;;4.29;93.45
829;BME280;396;52.558;13.188;2023-01-31T05:47:17;101114.13;;;4.27;93.70
829;BME280;396;52.558;13.188;2023-01-31T05:49:45;101119.00;;;4.30;93.54
829;BME280;396;52.558;13.188;2023-01-31T05:52:12;101113.94;;;4.34;93.89
829;BME280;396;52.558;13.188;2023-01-31T05:54:38;101114.84;;;4.22;94.41
829;BME280;396;52.558;13.188;2023-01-31T05:57:05;101132.09;;;4.26;94.54
829;BME280;396;52.558;13.188;2023-01-31T05:59:32;101134.75;;;4.26;94.46
829;BME280;396;52.558;13.188;2023-01-31T06:01:59;101139.31;;;4.26;95.05
829;BME280;396;52.558;13.188;2023-01-31T06:04:25;101127.84;;;4.30;94.41
829;BME280;396;52.558;13.188;2023-01-31T06:06:53;101128.81;;;4.41;93.90
829;BME280;396;52.558;13.188;2023-01-31T06:09:20;101136.84;;;4.41;94.21
829;BME280;396;52.558;13.188;2023-01-31T06:11:46;101140.41;;;4.47;93.83
829;BME280;396;52.558;13.188;2023-01-31T06:14:13;101133.69;;;4.44;94.03
829;BME280;396;52.558;13.188;2023-01-31T06:16:40;101140.13;;;4.43;94.17
829;BME280;396;52.558;13.188;2023-01-31T06:19:06;101146.28;;;4.44;94.25
829;BME280;396;52.558;13.188;2023-01-31T06:21:33;101148.16;;;4.43;93.82
829;BME280;396;52.558;13.188;2023-01-31T06:24:01;101153.28;;;4.45;94.05
829;BME280;396;52.558;13.188;2023-01-31T06:26:28;101156.50;;;4.47;94.01
829;BME280;396;52.558;13.188;2023-01-31T06:28:55;101160.84;;;4.48;94.25
829;BME280;396;52.558;13.188;2023-01-31T06:31:21;101151.72;;;4.49;94.07
829;BME280;396;52.558;13.188;2023-01-31T06:33:48;101160.03;;;4.47;94.22
829;BME280;396;52.558;13.188;2023-01-31T06:36:15;101154.88;;;4.46;94.55
829;BME280;396;52.558;13.188;2023-01-31T06:38:42;101152.84;;;4.53;94.16
829;BME280;396;52.558;13.188;2023-01-31T06:41:10;101162.19;;;4.50;94.47
829;BME280;396;52.558;13.188;2023-01-31T06:43:37;101160.41;;;4.56;94.82
829;BME280;396;52.558;13.188;2023-01-31T06:46:04;101160.97;;;4.58;95.16
829;BME280;396;52.558;13.188;2023-01-31T06:48:30;101158.34;;;4.63;95.12
829;BME280;396;52.558;13.188;2023-01-31T06:50:57;101159.75;;;4.49;96.17
829;BME280;396;52.558;13.188;2023-01-31T06:53:23;101165.47;;;4.52;96.85
829;BME280;396;52.558;13.188;2023-01-31T06:55:59;101160.31;;;4.51;96.87
829;BME280;396;52.558;13.188;2023-01-31T06:58:27;101159.75;;;4.49;97.65
829;BME280;396;52.558;13.188;2023-01-31T07:00:55;101161.38;;;4.50;97.17
829;BME280;396;52.558;13.188;2023-01-31T07:03:23;101154.16;;;4.50;97.70
829;BME280;396;52.558;13.188;2023-01-31T07:05:49;101152.53;;;4.49;98.04
829;BME280;396;52.558;13.188;2023-01-31T07:08:16;101153.72;;;4.59;97.65
829;BME280;396;52.558;13.188;2023-01-31T07:10:42;101146.50;;;4.59;97.63
829;BME280;396;52.558;13.188;2023-01-31T07:13:09;101138.75;;;4.63;97.73
829;BME280;396;52.558;13.188;2023-01-31T07:15:37;101170.16;;;4.62;97.80
829;BME280;396;52.558;13.188;2023-01-31T07:18:04;101155.13;;;4.61;98.10
829;BME280;396;52.558;13.188;2023-01-31T07:20:31;101159.56;;;4.72;97.17
829;BME280;396;52.558;13.188;2023-01-31T07:22:58;101162.75;;;4.69;97.41
829;BME280;396;52.558;13.188;2023-01-31T07:25:26;101161.63;;;4.65;98.28
829;BME280;396;52.558;13.188;2023-01-31T07:27:55;101153.63;;;4.70;97.89
829;BME280;396;52.558;13.188;2023-01-31T07:30:22;101152.25;;;4.68;97.74
829;BME280;396;52.558;13.188;2023-01-31T07:32:50;101157.94;;;4.71;97.60
829;BME280;396;52.558;13.188;2023-01-31T07:35:17;101159.88;;;4.76;97.50
829;BME280;396;52.558;13.188;2023-01-31T07:37:43;101142.38;;;4.73;97.36
829;BME280;396;52.558;13.188;2023-01-31T07:40:12;101148.31;;;4.75;97.32
829;BME280;396;52.558;13.188;2023-01-31T07:42:39;101149.13;;;4.76;98.13
829;BME280;396;52.558;13.188;2023-01-31T07:45:07;101155.63;;;4.80;98.06
829;BME280;396;52.558;13.188;2023-01-31T07:47:36;101155.16;;;4.83;97.61
829;BME280;396;52.558;13.188;2023-01-31T07:50:05;101151.72;;;4.88;97.30
829;BME280;396;52.558;13.188;2023-01-31T07:52:32;101149.19;;;4.81;97.75
829;BME280;396;52.558;13.188;2023-01-31T07:54:58;101151.94;;;4.86;97.17
829;BME280;396;52.558;13.188;2023-01-31T07:57:25;101153.00;;;4.85;97.48
829;BME280;396;52.558;13.188;2023-01-31T07:59:51;101145.22;;;4.84;97.92
829;BME280;396;52.558;13.188;2023-01-31T08:02:18;101141.53;;;4.90;97.28
829;BME280;396;52.558;13.188;2023-01-31T08:05:04;101133.22;;;4.91;97.35
829;BME280;396;52.558;13.188;2023-01-31T08:07:31;101136.97;;;4.90;97.71
829;BME280;396;52.558;13.188;2023-01-31T08:09:57;101148.78;;;4.89;97.90
829;BME280;396;52.558;13.188;2023-01-31T08:12:24;101135.09;;;4.91;97.86
829;BME280;396;52.558;13.188;2023-01-31T08:14:51;101148.78;;;4.89;98.04
829;BME280;396;52.558;13.188;2023-01-31T08:17:17;101131.06;;;4.88;98.10
829;BME280;396;52.558;13.188;2023-01-31T08:19:44;101129.50;;;4.92;98.58
829;BME280;396;52.558;13.188;2023-01-31T08:22:12;101136.06;;;5.01;97.64
829;BME280;396;52.558;13.188;2023-01-31T08:24:39;101131.00;;;5.05;97.94
829;BME280;396;52.558;13.188;2023-01-31T08:27:05;101118.59;;;5.04;98.44
829;BME280;396;52.558;13.188;2023-01-31T08:29:32;101121.75;;;4.96;99.45
829;BME280;396;52.558;13.188;2023-01-31T08:31:59;101126.13;;;5.02;99.53
829;BME280;396;52.558;13.188;2023-01-31T08:34:27;101115.69;;;5.05;98.67
829;BME280;396;52.558;13.188;2023-01-31T08:36:54;101112.38;;;4.98;99.32
829;BME280;396;52.558;13.188;2023-01-31T08:39:22;101122.25;;;4.93;100.00
829;BME280;396;52.558;13.188;2023-01-31T08:41:48;101115.25;;;4.92;100.00
829;BME280;396;52.558;13.188;2023-01-31T08:44:16;101112.50;;;4.87;100.00
829;BME280;396;52.558;13.188;2023-01-31T08:46:42;101123.06;;;4.93;100.00
829;BME280;396;52.558;13.188;2023-01-31T08:49:09;101111.56;;;4.98;100.00
829;BME280;396;52.558;13.188;2023-01-31T08:51:37;101116.50;;;5.06;99.75
829;BME280;396;52.558;13.188;2023-01-31T08:54:03;101102.06;;;5.12;99.02
829;BME280;396;52.558;13.188;2023-01-31T08:56:31;101107.25;;;5.19;98.46
829;BME280;396;52.558;13.188;2023-01-31T08:58:58;101105.56;;;5.13;99.07
829;BME280;396;52.558;13.188;2023-01-31T09:01:25;101108.06;;;5.19;98.17
829;BME280;396;52.558;13.188;2023-01-31T09:03:51;101096.56;;;5.24;97.75
829;BME280;396;52.558;13.188;2023-01-31T09:06:22;101104.34;;;5.25;97.20
829;BME280;396;52.558;13.188;2023-01-31T09:08:51;101099.75;;;5.21;97.75
829;BME280;396;52.558;13.188;2023-01-31T09:11:17;101089.84;;;5.26;97.37
829;BME280;396;52.558;13.188;2023-01-31T09:13:47;101097.41;;;5.29;97.22
829;BME280;396;52.558;13.188;2023-01-31T09:16:16;101089.72;;;5.38;96.47
829;BME280;396;52.558;13.188;2023-01-31T09:18:43;101076.28;;;5.38;96.77
829;BME280;396;52.558;13.188;2023-01-31T09:21:11;101083.31;;;5.44;96.95
829;BME280;396;52.558;13.188;2023-01-31T09:23:38;101083.88;;;5.46;95.96
829;BME280;396;52.558;13.188;2023-01-31T09:26:05;101078.50;;;5.46;95.55
829;BME280;396;52.558;13.188;2023-01-31T09:28:33;101070.72;;;5.45;95.48
829;BME280;396;52.558;13.188;2023-01-31T09:31:06;101074.00;;;5.52;94.96
829;BME280;396;52.558;13.188;2023-01-31T09:33:34;101074.00;;;5.52;94.83
829;BME280;396;52.558;13.188;2023-01-31T09:36:02;101069.47;;;5.57;94.29
829;BME280;396;52.558;13.188;2023-01-31T09:40:58;101065.16;;;5.56;93.85
829;BME280;396;52.558;13.188;2023-01-31T09:43:30;101062.75;;;5.55;93.70
829;BME280;396;52.558;13.188;2023-01-31T09:46:01;101059.75;;;5.51;94.92
829;BME280;396;52.558;13.188;2023-01-31T09:48:33;101055.84;;;5.64;94.32
829;BME280;396;52.558;13.188;2023-01-31T09:51:01;101057.25;;;5.72;94.08
829;BME280;396;52.558;13.188;2023-01-31T09:53:31;101046.84;;;5.80;92.97
829;BME280;396;52.558;13.188;2023-01-31T09:56:08;101046.75;;;5.75;92.97
829;BME280;396;52.558;13.188;2023-01-31T09:58:41;101043.38;;;5.85;93.31
829;BME280;396;52.558;13.188;2023-01-31T10:01:17;101040.72;;;5.90;92.24
829;BME280;396;52.558;13.188;2023-01-31T10:03:59;101030.28;;;5.94;92.10
829;BME280;396;52.558;13.188;2023-01-31T10:06:30;101023.28;;;5.93;92.17
829;BME280;396;52.558;13.188;2023-01-31T10:09:02;101021.66;;;5.92;91.89
829;BME280;396;52.558;13.188;2023-01-31T10:11:34;101030.81;;;5.96;91.68
829;BME280;396;52.558;13.188;2023-01-31T10:14:11;101021.16;;;6.00;91.21
829;BME280;396;52.558;13.188;2023-01-31T10:16:42;101017.66;;;5.94;91.47
829;BME280;396;52.558;13.188;2023-01-31T10:19:15;101019.19;;;5.90;92.13
829;BME280;396;52.558;13.188;2023-01-31T10:21:46;101017.28;;;5.86;92.48
829;BME280;396;52.558;13.188;2023-01-31T10:24:20;101009.72;;;5.77;93.53
829;BME280;396;52.558;13.188;2023-01-31T10:26:50;101010.44;;;5.68;95.45
829;BME280;396;52.558;13.188;2023-01-31T10:29:23;100997.16;;;5.51;96.97
829;BME280;396;52.558;13.188;2023-01-31T10:31:56;100982.09;;;5.50;98.10
829;BME280;396;52.558;13.188;2023-01-31T10:34:27;100977.84;;;5.54;98.77
829;BME280;396;52.558;13.188;2023-01-31T10:36:58;100977.03;;;5.53;99.14
829;BME280;396;52.558;13.188;2023-01-31T10:39:28;100966.34;;;5.64;97.72
829;BME280;396;52.558;13.188;2023-01-31T10:42:04;100968.53;;;5.67;97.70
829;BME280;396;52.558;13.188;2023-01-31T10:44:40;100972.56;;;5.69;96.53
829;BME280;396;52.558;13.188;2023-01-31T10:47:11;100959.59;;;5.61;97.79
829;BME280;396;52.558;13.188;2023-01-31T10:49:40;100955.81;;;5.57;97.54
829;BME280;396;52.558;13.188;2023-01-31T10:52:21;100949.63;;;5.56;97.05
829;BME280;396;52.558;13.188;2023-01-31T10:55:01;100944.28;;;5.62;97.20
829;BME280;396;52.558;13.188;2023-01-31T10:57:30;100936.00;;;5.68;95.82
829;BME280;396;52.558;13.188;2023-01-31T10:59:57;100926.09;;;5.74;95.69
829;BME280;396;52.558;13.188;2023-01-31T11:02:25;100924.78;;;5.81;96.09
829;BME280;396;52.558;13.188;2023-01-31T11:04:55;100919.44;;;5.87;95.25
829;BME280;396;52.558;13.188;2023-01-31T11:07:22;100918.06;;;5.84;94.81
829;BME280;396;52.558;13.188;2023-01-31T11:09:50;100912.75;;;5.89;94.05
829;BME280;396;52.558;13.188;2023-01-31T11:12:19;100912.81;;;5.94;94.54
829;BME280;396;52.558;13.188;2023-01-31T11:15:03;100912.53;;;6.01;93.87
829;BME280;396;52.558;13.188;2023-01-31T11:17:35;100897.47;;;5.95;95.10
829;BME280;396;52.558;13.188;2023-01-31T11:20:05;100891.28;;;5.94;96.15
829;BME280;396;52.558;13.188;2023-01-31T11:22:32;100888.78;;;5.88;96.96
829;BME280;396;52.558;13.188;2023-01-31T11:25:02;100877.22;;;5.82;97.20
829;BME280;396;52.558;13.188;2023-01-31T11:27:33;100882.28;;;5.73;99.12
829;BME280;396;52.558;13.188;2023-01-31T11:30:03;100866.97;;;5.74;99.55
829;BME280;396;52.558;13.188;2023-01-31T11:32:34;100867.22;;;5.72;99.85
829;BME280;396;52.558;13.188;2023-01-31T11:35:06;100859.41;;;5.71;100.00
829;BME280;396;52.558;13.188;2023-01-31T11:37:49;100849.50;;;5.71;100.00
829;BME280;396;52.558;13.188;2023-01-31T11:40:21;100841.38;;;5.66;100.00
829;BME280;396;52.558;13.188;2023-01-31T11:42:53;100838.19;;;5.74;98.67
829;BME280;396;52.558;13.188;2023-01-31T11:45:22;100831.72;;;5.70;99.00
829;BME280;396;52.558;13.188;2023-01-31T11:47:52;100826.94;;;5.72;99.45
829;BME280;396;52.558;13.188;2023-01-31T11:50:23;100818.06;;;5.72;99.03
829;BME280;396;52.558;13.188;2023-01-31T11:52:56;100824.78;;;5.74;98.13
829;BME280;396;52.558;13.188;2023-01-31T11:55:24;100801.66;;;5.78;97.88
829;BME280;396;52.558;13.188;2023-01-31T11:57:56;100798.75;;;5.80;97.90
829;BME280;396;52.558;13.188;2023-01-31T12:00:25;100807.34;;;5.82;97.62
829;BME280;396;52.558;13.188;2023-01-31T12:02:59;100776.97;;;5.81;98.38
829;BME280;396;52.558;13.188;2023-01-31T12:05:36;100773.69;;;5.74;100.00
829;BME280;396;52.558;13.188;2023-01-31T12:08:03;100763.72;;;5.65;100.00
829;BME280;396;52.558;13.188;2023-01-31T12:10:39;100765.59;;;5.59;100.00
829;BME280;396;52.558;13.188;2023-01-31T12:13:16;100750.78;;;5.51;100.00
829;BME280;396;52.558;13.188;2023-01-31T12:15:50;100750.53;;;5.53;100.00
829;BME280;396;52.558;13.188;2023-01-31T12:18:35;100752.13;;;5.49;100.00
829;BME280;396;52.558;13.188;2023-01-31T12:21:12;100733.28;;;5.44;100.00
829;BME280;396;52.558;13.188;2023-01-31T12:23:47;100739.72;;;5.38;100.00
829;BME280;396;52.558;13.188;2023-01-31T12:26:20;100728.69;;;5.34;100.00
829;BME280;396;52.558;13.188;2023-01-31T12:29:03;100722.00;;;5.31;100.00
829;BME280;396;52.558;13.188;2023-01-31T12:31:48;100717.94;;;5.29;100.00
829;BME280;396;52.558;13.188;2023-01-31T12:34:29;100712.06;;;5.32;100.00
829;BME280;396;52.558;13.188;2023-01-31T12:37:13;100709.59;;;5.30;100.00
829;BME280;396;52.558;13.188;2023-01-31T12:39:53;100702.91;;;5.28;100.00
829;BME280;396;52.558;13.188;2023-01-31T12:42:35;100701.78;;;5.19;100.00
829;BME280;396;52.558;13.188;2023-01-31T12:45:16;100710.09;;;5.17;100.00
829;BME280;396;52.558;13.188;2023-01-31T12:48:06;100695.31;;;5.15;100.00
829;BME280;396;52.558;13.188;2023-01-31T12:50:40;100681.09;;;5.09;100.00
829;BME280;396;52.558;13.188;2023-01-31T12:53:22;100677.31;;;5.05;100.00
829;BME280;396;52.558;13.188;2023-01-31T12:55:55;100677.00;;;5.01;100.00
829;BME280;396;52.558;13.188;2023-01-31T12:58:36;100671.09;;;4.99;100.00
829;BME280;396;52.558;13.188;2023-01-31T13:01:08;100671.38;;;5.03;100.00
829;BME280;396;52.558;13.188;2023-01-31T13:03:47;100668.97;;;5.06;100.00
829;BME280;396;52.558;13.188;2023-01-31T13:06:21;100674.88;;;5.09;100.00
829;BME280;396;52.558;13.188;2023-01-31T13:08:53;100657.97;;;5.08;100.00
829;BME280;396;52.558;13.188;2023-01-31T13:11:26;100666.03;;;5.08;100.00
829;BME280;396;52.558;13.188;2023-01-31T13:13:56;100648.88;;;5.09;100.00
829;BME280;396;52.558;13.188;2023-01-31T13:16:28;100659.06;;;5.12;100.00
829;BME280;396;52.558;13.188;2023-01-31T13:18:58;100652.09;;;5.11;100.00
829;BME280;396;52.558;13.188;2023-01-31T13:21:29;100646.94;;;5.04;100.00
829;BME280;396;52.558;13.188;2023-01-31T13:24:02;100643.22;;;5.11;100.00
829;BME280;396;52.558;13.188;2023-01-31T13:26:31;100636.75;;;5.06;100.00
829;BME280;396;52.558;13.188;2023-01-31T13:29:03;100643.75;;;5.07;100.00
829;BME280;396;52.558;13.188;2023-01-31T13:31:35;100644.00;;;5.06;100.00
829;BME280;396;52.558;13.188;2023-01-31T13:34:10;100634.34;;;5.05;100.00
829;BME280;396;52.558;13.188;2023-01-31T13:36:42;100640.53;;;5.11;100.00
829;BME280;396;52.558;13.188;2023-01-31T13:39:16;100638.13;;;5.09;100.00
829;BME280;396;52.558;13.188;2023-01-31T13:41:45;100631.13;;;5.08;100.00
829;BME280;396;52.558;13.188;2023-01-31T13:44:13;100644.00;;;5.06;100.00
829;BME280;396;52.558;13.188;2023-01-31T13:46:44;100646.69;;;5.06;100.00
829;BME280;396;52.558;13.188;2023-01-31T13:49:18;100633.81;;;5.08;100.00
829;BME280;396;52.558;13.188;2023-01-31T13:51:50;100648.31;;;5.07;100.00
829;BME280;396;52.558;13.188;2023-01-31T13:54:22;100641.63;;;5.10;100.00